sensor_id;sensor_type;location;lat;lon;timestamp;pressure;altitude;pressure_sealevel;temperature;humidity
13068;BME280;6600;51.362;6.686;2022-08-21T00:01:14;101275.75;;;18.77;95.98
13068;BME280;6600;51.362;6.686;2022-08-21T00:03:41;101272.75;;;18.74;95.28
13068;BME280;6600;51.362;6.686;2022-08-21T00:06:07;101278.16;;;18.74;95.13
13068;BME280;6600;51.362;6.686;2022-08-21T00:08:32;101275.16;;;18.70;95.86
13068;BME280;6600;51.362;6.686;2022-08-21T00:10:58;101274.53;;;18.63;95.95
13068;BME280;6600;51.362;6.686;2022-08-21T00:13:23;101269.06;;;18.58;95.90
13068;BME280;6600;51.362;6.686;2022-08-21T00:15:49;101269.81;;;18.53;96.36
13068;BME280;6600;51.362;6.686;2022-08-21T00:18:15;101263.81;;;18.51;96.69
13068;BME280;6600;51.362;6.686;2022-08-21T00:20:43;101259.13;;;18.47;97.22
13068;BME280;6600;51.362;6.686;2022-08-21T00:23:08;101264.25;;;18.43;97.46
13068;BME280;6600;51.362;6.686;2022-08-21T00:25:34;101256.03;;;18.38;97.97
13068;BME280;6600;51.362;6.686;2022-08-21T00:27:59;101261.41;;;18.33;97.85
13068;BME280;6600;51.362;6.686;2022-08-21T00:30:27;101255.34;;;18.26;98.16
13068;BME280;6600;51.362;6.686;2022-08-21T00:32:54;101244.44;;;18.21;98.99
13068;BME280;6600;51.362;6.686;2022-08-21T00:35:23;101257.34;;;18.14;99.46
13068;BME280;6600;51.362;6.686;2022-08-21T00:37:50;101244.81;;;18.08;99.66
13068;BME280;6600;51.362;6.686;2022-08-21T00:40:19;101251.25;;;18.02;100.00
13068;BME280;6600;51.362;6.686;2022-08-21T00:42:45;101255.78;;;17.96;100.00
13068;BME280;6600;51.362;6.686;2022-08-21T00:45:11;101244.59;;;17.93;100.00
13068;BME280;6600;51.362;6.686;2022-08-21T00:47:36;101242.34;;;17.85;100.00
13068;BME280;6600;51.362;6.686;2022-08-21T00:50:04;101243.91;;;17.81;100.00
13068;BME280;6600;51.362;6.686;2022-08-21T00:52:32;101244.91;;;17.75;100.00
13068;BME280;6600;51.362;6.686;2022-08-21T00:54:59;101235.09;;;17.69;100.00
13068;BME280;6600;51.362;6.686;2022-08-21T00:57:31;101243.13;;;17.63;100.00
13068;BME280;6600;51.362;6.686;2022-08-21T01:00:00;101241.16;;;17.59;100.00
13068;BME280;6600;51.362;6.686;2022-08-21T01:02:26;101234.34;;;17.56;100.00
13068;BME280;6600;51.362;6.686;2022-08-21T01:04:52;101228.34;;;17.54;100.00
13068;BME280;6600;51.362;6.686;2022-08-21T01:07:18;101234.22;;;17.51;100.00
13068;BME280;6600;51.362;6.686;2022-08-21T01:09:45;101237.44;;;17.48;100.00
13068;BME280;6600;51.362;6.686;2022-08-21T01:12:11;101233.53;;;17.39;100.00
13068;BME280;6600;51.362;6.686;2022-08-21T01:14:38;101235.56;;;17.32;100.00
13068;BME280;6600;51.362;6.686;2022-08-21T01:17:05;101238.53;;;17.31;100.00
13068;BME280;6600;51.362;6.686;2022-08-21T01:19:31;101239.50;;;17.25;100.00
13068;BME280;6600;51.362;6.686;2022-08-21T01:21:57;101248.72;;;17.24;100.00
13068;BME280;6600;51.362;6.686;2022-08-21T01:24:22;101244.88;;;17.20;100.00
13068;BME280;6600;51.362;6.686;2022-08-21T01:26:49;101236.91;;;17.13;100.00
13068;BME280;6600;51.362;6.686;2022-08-21T01:32:04;101240.50;;;17.02;100.00
13068;BME280;6600;51.362;6.686;2022-08-21T01:34:31;101234.50;;;17.00;100.00
13068;BME280;6600;51.362;6.686;2022-08-21T01:36:57;101238.84;;;17.01;100.00
13068;BME280;6600;51.362;6.686;2022-08-21T01:39:23;101248.53;;;16.97;100.00
13068;BME280;6600;51.362;6.686;2022-08-21T01:41:48;101241.22;;;16.97;100.00
13068;BME280;6600;51.362;6.686;2022-08-21T01:44:13;101248.53;;;16.97;100.00
13068;BME280;6600;51.362;6.686;2022-08-21T01:46:39;101243.59;;;16.94;100.00
13068;BME280;6600;51.362;6.686;2022-08-21T01:49:05;101243.75;;;16.87;100.00
13068;BME280;6600;51.362;6.686;2022-08-21T01:51:30;101244.25;;;16.84;100.00
13068;BME280;6600;51.362;6.686;2022-08-21T01:53:56;101245.56;;;16.82;100.00
13068;BME280;6600;51.362;6.686;2022-08-21T01:56:21;101243.09;;;16.80;100.00
13068;BME280;6600;51.362;6.686;2022-08-21T01:58:47;101237.34;;;16.77;100.00
13068;BME280;6600;51.362;6.686;2022-08-21T02:01:13;101240.53;;;16.74;100.00
13068;BME280;6600;51.362;6.686;2022-08-21T02:03:39;101247.50;;;16.70;100.00
13068;BME280;6600;51.362;6.686;2022-08-21T02:06:06;101243.91;;;16.64;100.00
13068;BME280;6600;51.362;6.686;2022-08-21T02:08:32;101236.81;;;16.63;100.00
13068;BME280;6600;51.362;6.686;2022-08-21T02:10:58;101242.50;;;16.61;100.00
13068;BME280;6600;51.362;6.686;2022-08-21T02:13:24;101243.56;;;16.60;100.00
13068;BME280;6600;51.362;6.686;2022-08-21T02:15:49;101244.59;;;16.59;100.00
13068;BME280;6600;51.362;6.686;2022-08-21T02:18:15;101236.00;;;16.62;100.00
13068;BME280;6600;51.362;6.686;2022-08-21T02:20:43;101237.66;;;16.63;100.00
13068;BME280;6600;51.362;6.686;2022-08-21T02:23:10;101236.69;;;16.70;100.00
13068;BME280;6600;51.362;6.686;2022-08-21T02:25:36;101237.34;;;16.77;100.00
13068;BME280;6600;51.362;6.686;2022-08-21T02:28:05;101241.09;;;16.76;100.00
13068;BME280;6600;51.362;6.686;2022-08-21T02:30:34;101234.91;;;16.75;100.00
13068;BME280;6600;51.362;6.686;2022-08-21T02:33:02;101236.19;;;16.73;100.00
13068;BME280;6600;51.362;6.686;2022-08-21T02:35:28;101235.50;;;16.65;100.00
13068;BME280;6600;51.362;6.686;2022-08-21T02:37:59;101228.47;;;16.64;100.00
13068;BME280;6600;51.362;6.686;2022-08-21T02:40:29;101227.81;;;16.57;100.00
13068;BME280;6600;51.362;6.686;2022-08-21T02:42:56;101233.91;;;16.53;100.00
13068;BME280;6600;51.362;6.686;2022-08-21T02:45:22;101231.13;;;16.48;100.00
13068;BME280;6600;51.362;6.686;2022-08-21T02:47:53;101235.09;;;16.45;100.00
13068;BME280;6600;51.362;6.686;2022-08-21T02:50:33;101227.41;;;16.37;100.00
13068;BME280;6600;51.362;6.686;2022-08-21T02:53:00;101236.22;;;16.33;100.00
13068;BME280;6600;51.362;6.686;2022-08-21T02:55:28;101232.13;;;16.30;100.00
13068;BME280;6600;51.362;6.686;2022-08-21T02:57:56;101229.91;;;16.27;100.00
13068;BME280;6600;51.362;6.686;2022-08-21T03:00:23;101226.59;;;16.25;100.00
13068;BME280;6600;51.362;6.686;2022-08-21T03:02:49;101231.44;;;16.23;100.00
13068;BME280;6600;51.362;6.686;2022-08-21T03:05:16;101223.81;;;16.20;100.00
13068;BME280;6600;51.362;6.686;2022-08-21T03:07:43;101224.25;;;16.17;100.00
13068;BME280;6600;51.362;6.686;2022-08-21T03:10:09;101225.84;;;16.13;100.00
13068;BME280;6600;51.362;6.686;2022-08-21T03:12:35;101222.03;;;16.14;100.00
13068;BME280;6600;51.362;6.686;2022-08-21T03:15:02;101213.38;;;16.12;100.00
13068;BME280;6600;51.362;6.686;2022-08-21T03:17:28;101217.13;;;16.11;100.00
13068;BME280;6600;51.362;6.686;2022-08-21T03:19:53;101220.31;;;16.08;100.00
13068;BME280;6600;51.362;6.686;2022-08-21T03:22:19;101218.91;;;16.05;100.00
13068;BME280;6600;51.362;6.686;2022-08-21T03:24:44;101216.44;;;16.04;100.00
13068;BME280;6600;51.362;6.686;2022-08-21T03:27:10;101207.75;;;16.02;100.00
13068;BME280;6600;51.362;6.686;2022-08-21T03:29:37;101217.53;;;16.03;100.00
13068;BME280;6600;51.362;6.686;2022-08-21T03:32:03;101217.75;;;16.01;100.00
13068;BME280;6600;51.362;6.686;2022-08-21T03:34:29;101214.47;;;15.99;100.00
13068;BME280;6600;51.362;6.686;2022-08-21T03:36:54;101213.66;;;15.99;100.00
13068;BME280;6600;51.362;6.686;2022-08-21T03:39:19;101214.81;;;16.03;100.00
13068;BME280;6600;51.362;6.686;2022-08-21T03:41:45;101220.22;;;16.03;100.00
13068;BME280;6600;51.362;6.686;2022-08-21T03:44:10;101220.66;;;16.00;100.00
13068;BME280;6600;51.362;6.686;2022-08-21T03:46:36;101216.91;;;16.01;100.00
13068;BME280;6600;51.362;6.686;2022-08-21T03:49:02;101226.00;;;15.95;100.00
13068;BME280;6600;51.362;6.686;2022-08-21T03:51:27;101229.66;;;15.89;100.00
13068;BME280;6600;51.362;6.686;2022-08-21T03:53:53;101232.72;;;15.81;100.00
13068;BME280;6600;51.362;6.686;2022-08-21T03:56:19;101230.59;;;15.71;100.00
13068;BME280;6600;51.362;6.686;2022-08-21T03:58:44;101224.25;;;15.65;100.00
13068;BME280;6600;51.362;6.686;2022-08-21T04:01:10;101236.63;;;15.61;100.00
13068;BME280;6600;51.362;6.686;2022-08-21T04:03:37;101234.72;;;15.62;100.00
13068;BME280;6600;51.362;6.686;2022-08-21T04:06:03;101236.63;;;15.61;100.00
13068;BME280;6600;51.362;6.686;2022-08-21T04:08:29;101236.25;;;15.58;100.00
13068;BME280;6600;51.362;6.686;2022-08-21T04:10:56;101242.72;;;15.57;100.00
13068;BME280;6600;51.362;6.686;2022-08-21T04:13:24;101243.53;;;15.57;100.00
13068;BME280;6600;51.362;6.686;2022-08-21T04:15:49;101243.53;;;15.57;100.00
13068;BME280;6600;51.362;6.686;2022-08-21T04:18:15;101240.22;;;15.55;100.00
13068;BME280;6600;51.362;6.686;2022-08-21T04:20:41;101246.09;;;15.52;100.00
13068;BME280;6600;51.362;6.686;2022-08-21T04:23:08;101243.19;;;15.54;100.00
13068;BME280;6600;51.362;6.686;2022-08-21T04:25:34;101233.69;;;15.51;100.00
13068;BME280;6600;51.362;6.686;2022-08-21T04:27:59;101245.06;;;15.53;100.00
13068;BME280;6600;51.362;6.686;2022-08-21T04:30:25;101238.63;;;15.54;100.00
13068;BME280;6600;51.362;6.686;2022-08-21T04:32:51;101251.75;;;15.51;100.00
13068;BME280;6600;51.362;6.686;2022-08-21T04:35:18;101235.78;;;15.49;100.00
13068;BME280;6600;51.362;6.686;2022-08-21T04:37:44;101241.19;;;15.49;100.00
13068;BME280;6600;51.362;6.686;2022-08-21T04:40:12;101242.84;;;15.50;100.00
13068;BME280;6600;51.362;6.686;2022-08-21T04:42:44;101243.50;;;15.46;100.00
13068;BME280;6600;51.362;6.686;2022-08-21T04:45:23;101245.38;;;15.45;100.00
13068;BME280;6600;51.362;6.686;2022-08-21T04:47:51;101241.19;;;15.49;100.00
13068;BME280;6600;51.362;6.686;2022-08-21T04:50:17;101246.59;;;15.49;100.00
13068;BME280;6600;51.362;6.686;2022-08-21T04:52:43;101241.63;;;15.46;100.00
13068;BME280;6600;51.362;6.686;2022-08-21T04:55:09;101248.69;;;15.47;100.00
13068;BME280;6600;51.362;6.686;2022-08-21T04:57:34;101254.47;;;15.51;100.00
13068;BME280;6600;51.362;6.686;2022-08-21T05:00:01;101247.97;;;15.52;100.00
13068;BME280;6600;51.362;6.686;2022-08-21T05:02:27;101243.19;;;15.54;100.00
13068;BME280;6600;51.362;6.686;2022-08-21T05:04:54;101246.81;;;15.59;100.00
13068;BME280;6600;51.362;6.686;2022-08-21T05:07:22;101246.47;;;15.68;100.00
13068;BME280;6600;51.362;6.686;2022-08-21T05:09:50;101255.50;;;15.73;100.00
13068;BME280;6600;51.362;6.686;2022-08-21T05:12:15;101248.22;;;15.74;100.00
13068;BME280;6600;51.362;6.686;2022-08-21T05:14:41;101253.41;;;15.75;100.00
13068;BME280;6600;51.362;6.686;2022-08-21T05:17:08;101260.69;;;15.75;100.00
13068;BME280;6600;51.362;6.686;2022-08-21T05:19:33;101264.09;;;15.82;100.00
13068;BME280;6600;51.362;6.686;2022-08-21T05:21:59;101260.44;;;15.88;100.00
13068;BME280;6600;51.362;6.686;2022-08-21T05:24:26;101267.84;;;15.92;100.00
13068;BME280;6600;51.362;6.686;2022-08-21T05:26:51;101271.47;;;15.98;100.00
13068;BME280;6600;51.362;6.686;2022-08-21T05:29:17;101279.22;;;16.06;100.00
13068;BME280;6600;51.362;6.686;2022-08-21T05:31:43;101277.88;;;16.20;100.00
13068;BME280;6600;51.362;6.686;2022-08-21T05:34:08;101267.38;;;16.35;100.00
13068;BME280;6600;51.362;6.686;2022-08-21T05:36:34;101271.22;;;16.51;100.00
13068;BME280;6600;51.362;6.686;2022-08-21T05:38:59;101274.06;;;16.73;100.00
13068;BME280;6600;51.362;6.686;2022-08-21T05:41:25;101270.00;;;16.87;100.00
13068;BME280;6600;51.362;6.686;2022-08-21T05:43:50;101273.31;;;17.05;100.00
13068;BME280;6600;51.362;6.686;2022-08-21T05:46:16;101268.41;;;17.19;100.00
13068;BME280;6600;51.362;6.686;2022-08-21T05:48:41;101262.16;;;17.35;100.00
13068;BME280;6600;51.362;6.686;2022-08-21T05:51:09;101273.16;;;17.45;100.00
13068;BME280;6600;51.362;6.686;2022-08-21T05:53:36;101274.63;;;17.53;100.00
13068;BME280;6600;51.362;6.686;2022-08-21T05:56:03;101271.69;;;17.54;100.00
13068;BME280;6600;51.362;6.686;2022-08-21T05:58:29;101271.22;;;17.57;100.00
13068;BME280;6600;51.362;6.686;2022-08-21T06:00:56;101280.56;;;17.66;100.00
13068;BME280;6600;51.362;6.686;2022-08-21T06:03:28;101280.22;;;17.80;100.00
13068;BME280;6600;51.362;6.686;2022-08-21T06:05:54;101267.88;;;17.89;100.00
13068;BME280;6600;51.362;6.686;2022-08-21T06:08:21;101271.81;;;17.98;100.00
13068;BME280;6600;51.362;6.686;2022-08-21T06:10:48;101270.88;;;18.09;100.00
13068;BME280;6600;51.362;6.686;2022-08-21T06:13:15;101273.59;;;18.09;99.88
13068;BME280;6600;51.362;6.686;2022-08-21T06:15:42;101273.44;;;18.21;99.10
13068;BME280;6600;51.362;6.686;2022-08-21T06:18:07;101278.56;;;18.39;98.92
13068;BME280;6600;51.362;6.686;2022-08-21T06:20:33;101278.81;;;18.37;98.01
13068;BME280;6600;51.362;6.686;2022-08-21T06:22:59;101282.28;;;18.33;97.62
13068;BME280;6600;51.362;6.686;2022-08-21T06:25:25;101281.19;;;18.50;97.48
13068;BME280;6600;51.362;6.686;2022-08-21T06:27:51;101277.06;;;18.48;96.78
13068;BME280;6600;51.362;6.686;2022-08-21T06:30:17;101273.50;;;18.47;97.31
13068;BME280;6600;51.362;6.686;2022-08-21T06:32:42;101275.75;;;18.50;97.32
13068;BME280;6600;51.362;6.686;2022-08-21T06:35:08;101274.28;;;18.43;97.07
13068;BME280;6600;51.362;6.686;2022-08-21T06:37:33;101280.66;;;18.53;96.68
13068;BME280;6600;51.362;6.686;2022-08-21T06:39:59;101274.84;;;18.66;96.64
13068;BME280;6600;51.362;6.686;2022-08-21T06:42:24;101283.16;;;18.82;96.11
13068;BME280;6600;51.362;6.686;2022-08-21T06:44:50;101284.88;;;18.93;96.20
13068;BME280;6600;51.362;6.686;2022-08-21T06:47:15;101285.31;;;19.06;94.90
13068;BME280;6600;51.362;6.686;2022-08-21T06:49:41;101288.41;;;19.20;94.64
13068;BME280;6600;51.362;6.686;2022-08-21T06:52:11;101278.69;;;19.29;94.11
13068;BME280;6600;51.362;6.686;2022-08-21T06:54:37;101281.44;;;19.34;92.35
13068;BME280;6600;51.362;6.686;2022-08-21T06:57:02;101282.56;;;19.38;93.09
13068;BME280;6600;51.362;6.686;2022-08-21T06:59:28;101286.56;;;19.57;92.84
13068;BME280;6600;51.362;6.686;2022-08-21T07:01:53;101275.75;;;19.73;92.07
13068;BME280;6600;51.362;6.686;2022-08-21T07:04:18;101281.25;;;19.78;91.13
13068;BME280;6600;51.362;6.686;2022-08-21T07:06:45;101279.06;;;19.80;90.16
13068;BME280;6600;51.362;6.686;2022-08-21T07:09:10;101278.59;;;19.93;90.56
13068;BME280;6600;51.362;6.686;2022-08-21T07:11:36;101275.16;;;20.02;89.75
13068;BME280;6600;51.362;6.686;2022-08-21T07:14:02;101274.94;;;20.24;89.27
13068;BME280;6600;51.362;6.686;2022-08-21T07:16:27;101277.19;;;20.32;88.88
13068;BME280;6600;51.362;6.686;2022-08-21T07:18:53;101280.81;;;20.48;88.58
13068;BME280;6600;51.362;6.686;2022-08-21T07:21:19;101278.63;;;20.50;87.43
13068;BME280;6600;51.362;6.686;2022-08-21T07:23:48;101271.00;;;20.47;87.44
13068;BME280;6600;51.362;6.686;2022-08-21T07:26:16;101280.28;;;20.51;87.48
13068;BME280;6600;51.362;6.686;2022-08-21T07:28:42;101275.13;;;20.54;86.83
13068;BME280;6600;51.362;6.686;2022-08-21T07:31:09;101267.47;;;20.56;85.73
13068;BME280;6600;51.362;6.686;2022-08-21T07:33:35;101274.34;;;20.74;83.76
13068;BME280;6600;51.362;6.686;2022-08-21T07:36:02;101271.09;;;20.87;83.05
13068;BME280;6600;51.362;6.686;2022-08-21T07:38:27;101282.00;;;20.92;81.81
13068;BME280;6600;51.362;6.686;2022-08-21T07:40:55;101287.72;;;20.86;80.08
13068;BME280;6600;51.362;6.686;2022-08-21T07:43:21;101281.94;;;20.72;79.77
13068;BME280;6600;51.362;6.686;2022-08-21T07:45:47;101283.88;;;20.72;80.31
13068;BME280;6600;51.362;6.686;2022-08-21T07:48:14;101282.28;;;20.86;80.36
13068;BME280;6600;51.362;6.686;2022-08-21T07:50:40;101283.91;;;20.92;80.63
13068;BME280;6600;51.362;6.686;2022-08-21T07:53:06;101284.72;;;20.97;80.10
13068;BME280;6600;51.362;6.686;2022-08-21T07:55:33;101287.19;;;20.99;79.71
13068;BME280;6600;51.362;6.686;2022-08-21T07:57:58;101280.09;;;20.98;79.85
13068;BME280;6600;51.362;6.686;2022-08-21T08:00:25;101268.69;;;21.11;80.93
13068;BME280;6600;51.362;6.686;2022-08-21T08:02:52;101260.50;;;21.06;79.60
13068;BME280;6600;51.362;6.686;2022-08-21T08:05:21;101264.84;;;21.07;79.97
13068;BME280;6600;51.362;6.686;2022-08-21T08:07:47;101253.66;;;21.03;79.87
13068;BME280;6600;51.362;6.686;2022-08-21T08:10:12;101257.75;;;21.01;79.97
13068;BME280;6600;51.362;6.686;2022-08-21T08:12:41;101264.31;;;21.05;79.20
13068;BME280;6600;51.362;6.686;2022-08-21T08:15:09;101259.38;;;20.92;79.03
13068;BME280;6600;51.362;6.686;2022-08-21T08:17:35;101256.66;;;20.97;79.19
13068;BME280;6600;51.362;6.686;2022-08-21T08:20:01;101255.03;;;21.06;78.57
13068;BME280;6600;51.362;6.686;2022-08-21T08:22:27;101267.88;;;21.21;78.39
13068;BME280;6600;51.362;6.686;2022-08-21T08:24:53;101259.97;;;21.34;77.97
13068;BME280;6600;51.362;6.686;2022-08-21T08:27:19;101260.50;;;21.56;77.64
13068;BME280;6600;51.362;6.686;2022-08-21T08:29:45;101260.22;;;21.63;77.86
13068;BME280;6600;51.362;6.686;2022-08-21T08:32:11;101269.97;;;21.79;77.11
13068;BME280;6600;51.362;6.686;2022-08-21T08:34:37;101264.78;;;22.03;76.88
13068;BME280;6600;51.362;6.686;2022-08-21T08:37:05;101265.28;;;22.10;76.34
13068;BME280;6600;51.362;6.686;2022-08-21T08:39:31;101273.78;;;22.03;76.19
13068;BME280;6600;51.362;6.686;2022-08-21T08:42:09;101269.09;;;22.19;76.26
13068;BME280;6600;51.362;6.686;2022-08-21T08:44:42;101265.19;;;22.40;75.40
13068;BME280;6600;51.362;6.686;2022-08-21T08:47:09;101263.16;;;22.56;75.10
13068;BME280;6600;51.362;6.686;2022-08-21T08:52:31;101257.38;;;22.62;74.31
13068;BME280;6600;51.362;6.686;2022-08-21T08:55:03;101250.03;;;22.68;74.41
13068;BME280;6600;51.362;6.686;2022-08-21T08:57:30;101249.47;;;22.71;74.46
13068;BME280;6600;51.362;6.686;2022-08-21T08:59:58;101252.72;;;22.73;75.19
13068;BME280;6600;51.362;6.686;2022-08-21T09:02:24;101250.78;;;22.79;74.64
13068;BME280;6600;51.362;6.686;2022-08-21T09:04:53;101244.91;;;22.95;74.41
13068;BME280;6600;51.362;6.686;2022-08-21T09:10:11;101241.66;;;23.27;71.88
13068;BME280;6600;51.362;6.686;2022-08-21T09:25:44;101241.66;;;23.27;70.64
13068;BME280;6600;51.362;6.686;2022-08-21T09:28:11;101234.16;;;23.43;70.36
13068;BME280;6600;51.362;6.686;2022-08-21T09:30:40;101239.91;;;23.36;69.44
13068;BME280;6600;51.362;6.686;2022-08-21T09:33:06;101235.81;;;23.68;69.40
13068;BME280;6600;51.362;6.686;2022-08-21T09:35:32;101233.47;;;23.80;70.64
13068;BME280;6600;51.362;6.686;2022-08-21T09:38:03;101243.94;;;23.73;68.69
13068;BME280;6600;51.362;6.686;2022-08-21T09:40:38;101238.25;;;23.93;69.28
13068;BME280;6600;51.362;6.686;2022-08-21T09:43:21;101227.66;;;23.62;68.86
13068;BME280;6600;51.362;6.686;2022-08-21T09:45:50;101229.78;;;23.65;68.77
13068;BME280;6600;51.362;6.686;2022-08-21T09:48:25;101226.66;;;23.53;69.05
13068;BME280;6600;51.362;6.686;2022-08-21T09:50:52;101229.53;;;23.91;69.24
13068;BME280;6600;51.362;6.686;2022-08-21T09:53:29;101219.75;;;23.85;68.50
13068;BME280;6600;51.362;6.686;2022-08-21T09:56:02;101230.81;;;23.75;67.63
13068;BME280;6600;51.362;6.686;2022-08-21T09:58:48;101217.53;;;23.87;70.35
13068;BME280;6600;51.362;6.686;2022-08-21T10:03:42;101213.91;;;23.91;69.63
13068;BME280;6600;51.362;6.686;2022-08-21T10:06:09;101202.03;;;24.01;68.30
13068;BME280;6600;51.362;6.686;2022-08-21T10:08:42;101205.38;;;24.40;69.00
13068;BME280;6600;51.362;6.686;2022-08-21T10:11:10;101209.00;;;24.12;67.90
13068;BME280;6600;51.362;6.686;2022-08-21T10:19:15;101209.41;;;24.24;68.83
13068;BME280;6600;51.362;6.686;2022-08-21T10:24:39;101212.00;;;24.34;69.08
13068;BME280;6600;51.362;6.686;2022-08-21T10:30:32;101202.06;;;24.76;66.76
13068;BME280;6600;51.362;6.686;2022-08-21T10:33:05;101202.69;;;24.73;66.08
13068;BME280;6600;51.362;6.686;2022-08-21T10:35:44;101207.50;;;24.62;65.22
13068;BME280;6600;51.362;6.686;2022-08-21T10:48:58;101194.09;;;24.98;65.26
13068;BME280;6600;51.362;6.686;2022-08-21T10:54:45;101202.69;;;25.24;64.27
13068;BME280;6600;51.362;6.686;2022-08-21T10:57:19;101195.00;;;25.39;63.26
13068;BME280;6600;51.362;6.686;2022-08-21T10:59:59;101193.44;;;25.20;63.19
13068;BME280;6600;51.362;6.686;2022-08-21T11:02:31;101203.16;;;25.44;64.56
13068;BME280;6600;51.362;6.686;2022-08-21T11:05:12;101191.41;;;25.57;62.17
13068;BME280;6600;51.362;6.686;2022-08-21T11:10:21;101201.69;;;25.33;60.40
13068;BME280;6600;51.362;6.686;2022-08-21T11:12:52;101196.78;;;25.62;60.97
13068;BME280;6600;51.362;6.686;2022-08-21T11:24:02;101191.19;;;25.68;60.34
13068;BME280;6600;51.362;6.686;2022-08-21T11:26:41;101185.28;;;25.60;60.87
13068;BME280;6600;51.362;6.686;2022-08-21T11:29:19;101193.81;;;26.00;59.99
13068;BME280;6600;51.362;6.686;2022-08-21T11:31:58;101193.00;;;26.13;60.27
13068;BME280;6600;51.362;6.686;2022-08-21T11:38:35;101197.91;;;25.89;59.97
13068;BME280;6600;51.362;6.686;2022-08-21T11:40:49;101189.72;;;25.43;59.88
13068;BME280;6600;51.362;6.686;2022-08-21T11:47:22;101194.03;;;25.90;60.00
13068;BME280;6600;51.362;6.686;2022-08-21T11:49:46;101188.91;;;26.10;58.44
13068;BME280;6600;51.362;6.686;2022-08-21T11:55:12;101194.59;;;26.14;60.11
13068;BME280;6600;51.362;6.686;2022-08-21T11:58:02;101185.50;;;25.64;61.34
13068;BME280;6600;51.362;6.686;2022-08-21T12:00:34;101180.81;;;25.78;61.95
13068;BME280;6600;51.362;6.686;2022-08-21T12:03:17;101178.56;;;25.67;62.00
13068;BME280;6600;51.362;6.686;2022-08-21T12:06:00;101172.88;;;25.77;62.35
13068;BME280;6600;51.362;6.686;2022-08-21T12:08:40;101172.06;;;25.62;61.14
13068;BME280;6600;51.362;6.686;2022-08-21T12:14:10;101171.34;;;25.98;60.65
13068;BME280;6600;51.362;6.686;2022-08-21T12:16:40;101176.13;;;26.20;59.94
13068;BME280;6600;51.362;6.686;2022-08-21T12:19:16;101178.50;;;26.35;59.88
13068;BME280;6600;51.362;6.686;2022-08-21T12:21:54;101171.56;;;26.51;58.59
13068;BME280;6600;51.362;6.686;2022-08-21T12:29:28;101165.75;;;26.75;57.88
13068;BME280;6600;51.362;6.686;2022-08-21T12:32:20;101168.47;;;26.88;58.12
13068;BME280;6600;51.362;6.686;2022-08-21T12:35:05;101161.63;;;27.08;56.81
13068;BME280;6600;51.362;6.686;2022-08-21T12:37:41;101166.75;;;26.79;54.67
13068;BME280;6600;51.362;6.686;2022-08-21T12:40:31;101172.31;;;26.65;53.96
13068;BME280;6600;51.362;6.686;2022-08-21T12:43:03;101171.38;;;26.47;53.72
13068;BME280;6600;51.362;6.686;2022-08-21T12:45:32;101170.16;;;26.62;55.75
13068;BME280;6600;51.362;6.686;2022-08-21T12:48:08;101175.28;;;26.33;55.84
13068;BME280;6600;51.362;6.686;2022-08-21T12:50:56;101168.78;;;26.15;55.90
13068;BME280;6600;51.362;6.686;2022-08-21T12:53:45;101162.16;;;26.16;56.15
13068;BME280;6600;51.362;6.686;2022-08-21T12:56:15;101159.31;;;26.07;56.08
13068;BME280;6600;51.362;6.686;2022-08-21T12:58:49;101162.06;;;26.07;55.89
13068;BME280;6600;51.362;6.686;2022-08-21T13:01:24;101160.75;;;26.05;55.70
13068;BME280;6600;51.362;6.686;2022-08-21T13:03:53;101172.16;;;26.48;56.49
13068;BME280;6600;51.362;6.686;2022-08-21T13:06:20;101166.88;;;26.74;56.28
13068;BME280;6600;51.362;6.686;2022-08-21T13:08:48;101173.63;;;26.68;56.03
13068;BME280;6600;51.362;6.686;2022-08-21T13:11:19;101173.06;;;26.21;55.89
13068;BME280;6600;51.362;6.686;2022-08-21T13:13:51;101165.91;;;26.06;55.84
13068;BME280;6600;51.362;6.686;2022-08-21T13:16:28;101156.59;;;25.94;56.43
13068;BME280;6600;51.362;6.686;2022-08-21T13:19:03;101158.81;;;26.19;56.79
13068;BME280;6600;51.362;6.686;2022-08-21T13:21:49;101158.81;;;26.19;54.19
13068;BME280;6600;51.362;6.686;2022-08-21T13:24:30;101170.81;;;26.23;52.75
13068;BME280;6600;51.362;6.686;2022-08-21T13:26:57;101167.03;;;26.55;52.82
13068;BME280;6600;51.362;6.686;2022-08-21T13:29:29;101162.94;;;26.66;53.77
13068;BME280;6600;51.362;6.686;2022-08-21T13:32:00;101143.75;;;26.75;54.41
13068;BME280;6600;51.362;6.686;2022-08-21T13:34:30;101153.00;;;26.56;55.82
13068;BME280;6600;51.362;6.686;2022-08-21T13:37:05;101146.13;;;26.45;55.21
13068;BME280;6600;51.362;6.686;2022-08-21T13:39:31;101149.53;;;26.65;54.09
13068;BME280;6600;51.362;6.686;2022-08-21T13:42:00;101143.06;;;26.47;54.76
13068;BME280;6600;51.362;6.686;2022-08-21T13:44:36;101150.13;;;26.39;52.96
13068;BME280;6600;51.362;6.686;2022-08-21T13:47:04;101141.88;;;26.39;53.86
13068;BME280;6600;51.362;6.686;2022-08-21T13:49:32;101141.81;;;26.53;52.48
13068;BME280;6600;51.362;6.686;2022-08-21T13:51:58;101141.25;;;26.42;53.46
13068;BME280;6600;51.362;6.686;2022-08-21T13:54:40;101138.00;;;26.40;53.17
13068;BME280;6600;51.362;6.686;2022-08-21T13:57:38;101144.66;;;26.26;54.08
13068;BME280;6600;51.362;6.686;2022-08-21T14:02:46;101140.25;;;26.38;53.37
13068;BME280;6600;51.362;6.686;2022-08-21T14:05:20;101145.16;;;26.28;51.26
13068;BME280;6600;51.362;6.686;2022-08-21T14:07:46;101143.75;;;26.30;52.36
13068;BME280;6600;51.362;6.686;2022-08-21T14:10:16;101145.44;;;26.62;52.27
13068;BME280;6600;51.362;6.686;2022-08-21T14:12:52;101139.41;;;26.38;53.66
13068;BME280;6600;51.362;6.686;2022-08-21T14:15:24;101139.38;;;26.51;54.06
13068;BME280;6600;51.362;6.686;2022-08-21T14:17:50;101137.13;;;26.76;52.43
13068;BME280;6600;51.362;6.686;2022-08-21T14:20:32;101138.13;;;27.02;50.53
13068;BME280;6600;51.362;6.686;2022-08-21T14:22:58;101138.41;;;27.23;50.46
13068;BME280;6600;51.362;6.686;2022-08-21T14:32:46;101133.91;;;26.96;50.30